< Typhoon 199616 1996 Season Typhoon 199618 >
Typhoon 199617 (VIOLET)
General InformationTrack Information on Google MapsDetailed Wind InformationList of All Images || NewsDisaster Info.ResourceGoogle EarthGE AnimationAtom FeedGeoJSON
Detalied Best Track (Time Zone = UTC)
Year Month Day Hour Lat. Long. Pressure (hPa) Wind (kt) Class Image Chart
1996 9 11 06 15.0 130.9 1000 0 2 Image Chart
1996 9 11 12 15.3 130.6 1000 0 2 Image Chart
1996 9 11 18 15.5 130.3 1000 0 2 Image Chart
1996 9 12 00 15.7 130.1 998 0 2 Image Chart
1996 9 12 06 15.9 129.9 998 0 2 Image Chart
1996 9 12 12 16.2 129.7 996 0 2 Image Chart
1996 9 12 18 16.3 129.5 996 0 2 Image Chart
1996 9 13 00 16.4 129.3 992 40 3 Image Chart
1996 9 13 06 16.4 129.1 990 45 3 Image Chart
1996 9 13 12 16.4 128.9 985 50 4 Image Chart
1996 9 13 18 16.3 128.7 980 55 4 Image Chart
1996 9 14 00 16.3 128.7 980 55 4 Image Chart
1996 9 14 06 16.7 128.6 975 60 4 Image Chart
1996 9 14 12 17.2 128.4 970 65 5 Image Chart
1996 9 14 18 17.7 127.9 960 70 5 Image Chart
1996 9 15 00 18.0 127.4 955 75 5 Image Chart
1996 9 15 06 18.5 127.1 955 75 5 Image Chart
1996 9 15 12 18.9 126.8 950 80 5 Image Chart
1996 9 15 18 19.4 126.7 940 85 5 Image Chart
1996 9 16 00 20.0 126.4 935 90 5 Image Chart
1996 9 16 06 20.5 126.3 935 90 5 Image Chart
1996 9 16 12 20.5 126.7 935 90 5 Image Chart
1996 9 16 18 21.1 127.2 935 90 5 Image Chart
1996 9 17 00 21.3 127.7 935 90 5 Image Chart
1996 9 17 06 21.8 128.4 940 85 5 Image Chart
1996 9 17 12 22.2 128.9 940 85 5 Image Chart
1996 9 17 18 22.7 129.6 940 85 5 Image Chart
1996 9 18 00 23.0 130.1 950 80 5 Image Chart
1996 9 18 06 23.2 130.6 950 80 5 Image Chart
1996 9 18 12 23.3 131.1 950 80 5 Image Chart
1996 9 18 18 23.4 131.5 950 80 5 Image Chart
1996 9 19 00 23.7 131.7 950 80 5 Image Chart
1996 9 19 03 23.9 131.7 950 80 5 Image Chart
1996 9 19 06 24.0 131.7 950 80 5 Image Chart
1996 9 19 09 24.2 131.8 950 80 5 Image Chart
1996 9 19 12 24.4 131.9 950 80 5 Image Chart
1996 9 19 15 24.6 131.9 950 80 5 Image Chart
1996 9 19 18 24.8 131.9 950 80 5 Image Chart
1996 9 19 21 24.9 131.9 950 80 5 Image Chart
1996 9 20 00 25.1 132.0 950 80 5 Image Chart
1996 9 20 03 25.3 132.1 950 80 5 Image Chart
1996 9 20 06 25.6 132.3 950 80 5 Image Chart
1996 9 20 09 25.9 132.5 950 80 5 Image Chart
1996 9 20 12 26.2 132.7 950 80 5 Image Chart
1996 9 20 15 26.5 133.0 950 80 5 Image Chart
1996 9 20 18 26.8 133.2 955 75 5 Image Chart
1996 9 20 21 27.2 133.8 955 75 5 Image Chart
1996 9 21 00 27.5 134.2 955 75 5 Image Chart
1996 9 21 03 27.8 134.6 955 75 5 Image Chart
1996 9 21 06 28.2 135.0 955 75 5 Image Chart
1996 9 21 09 28.7 135.5 955 75 5 Image Chart
1996 9 21 12 29.4 136.4 955 75 5 Image Chart
1996 9 21 15 30.0 137.0 955 75 5 Image Chart
1996 9 21 18 30.8 137.7 960 70 5 Image Chart
1996 9 21 21 31.6 138.3 960 70 5 Image Chart
1996 9 22 00 32.5 138.9 960 70 5 Image Chart
1996 9 22 03 33.9 140.0 960 70 5 Image Chart
1996 9 22 06 35.1 141.0 960 70 5 Image Chart
1996 9 22 09 36.4 142.2 965 70 5 Image Chart
1996 9 22 12 37.8 143.3 970 65 5 Image Chart
1996 9 22 15 38.5 144.2 970 65 5 Image Chart
1996 9 22 18 39.2 145.2 975 60 4 Image Chart
1996 9 22 21 40.5 146.0 975 55 4 Image Chart
1996 9 23 00 41.4 146.8 985 50 4 Image Chart
1996 9 23 03 42.1 147.5 985 50 4 Image Chart
1996 9 23 06 42.8 148.0 985 50 4 Image Chart
1996 9 23 12 44.6 149.0 990 0 6 Image Chart
1996 9 23 18 46.3 150.0 990 0 6 Image Chart
1996 9 24 00 47.8 151.7 992 0 6 Image Chart
1996 9 24 06 48.9 153.3 992 0 6 Image Chart
1996 9 24 12 49.5 155.5 992 0 6 Image Chart
1996 9 24 18 49.9 157.8 992 0 6 Image Chart
1996 9 25 00 49.9 160.1 994 0 6 Image Chart
1996 9 25 06 49.5 161.8 994 0 6 Image Chart
1996 9 25 12 48.8 163.7 996 0 6 Image Chart
1996 9 25 18 48.3 165.8 1000 0 6 Image Chart
1996 9 26 00 47.5 168.2 1000 0 6 Image Chart
1996 9 26 06 46.6 170.8 1004 0 6 Image Chart
1996 9 26 12 45.7 173.5 1008 0 6 Image Chart
1996 9 26 18 44.9 175.8 1010 0 6 Image Chart
1996 9 27 00 44.0 178.0 1012 0 6 Image Chart
1996 9 27 06 43.0 179.8 1012 0 6 Image Chart
1996 9 27 12 41.8 180.9 1012 0 6 Image Chart
Japan Meteorological Agency Best Track Data | Correction Date : 1997-01-07
< Typhoon 199616 1996 Season Typhoon 199618 >

Help